sensor_id;sensor_type;location;lat;lon;timestamp;P1;durP1;ratioP1;P2;durP2;ratioP2
15952;SDS011;8075;47.766;8.846;2022-09-20T05:09:11;2.92;;;1.10;;
15952;SDS011;8075;47.766;8.846;2022-09-20T05:35:13;6.37;;;1.40;;
15952;SDS011;8075;47.766;8.846;2022-09-20T05:40:42;4.60;;;1.40;;
15952;SDS011;8075;47.766;8.846;2022-09-20T05:48:58;2.33;;;1.63;;
15952;SDS011;8075;47.766;8.846;2022-09-20T05:54:30;2.30;;;1.42;;
15952;SDS011;8075;47.766;8.846;2022-09-20T06:11:53;4.20;;;1.52;;
15952;SDS011;8075;47.766;8.846;2022-09-20T06:17:16;3.90;;;1.60;;
15952;SDS011;8075;47.766;8.846;2022-09-20T06:22:13;3.80;;;1.50;;
15952;SDS011;8075;47.766;8.846;2022-09-20T06:24:46;2.47;;;1.73;;
15952;SDS011;8075;47.766;8.846;2022-09-20T06:27:21;3.33;;;1.50;;
15952;SDS011;8075;47.766;8.846;2022-09-20T06:29:59;3.83;;;1.70;;
15952;SDS011;8075;47.766;8.846;2022-09-20T06:32:30;3.87;;;1.60;;
15952;SDS011;8075;47.766;8.846;2022-09-20T06:34:56;5.57;;;2.28;;
15952;SDS011;8075;47.766;8.846;2022-09-20T06:43:12;5.65;;;1.73;;
15952;SDS011;8075;47.766;8.846;2022-09-20T06:45:39;4.13;;;1.88;;
15952;SDS011;8075;47.766;8.846;2022-09-20T06:48:05;4.20;;;2.00;;
15952;SDS011;8075;47.766;8.846;2022-09-20T06:50:37;3.20;;;1.90;;
15952;SDS011;8075;47.766;8.846;2022-09-20T06:53:03;2.72;;;1.90;;
15952;SDS011;8075;47.766;8.846;2022-09-20T06:55:31;2.92;;;1.80;;
15952;SDS011;8075;47.766;8.846;2022-09-20T06:58:01;4.20;;;2.00;;
15952;SDS011;8075;47.766;8.846;2022-09-20T07:00:27;4.78;;;2.03;;
15952;SDS011;8075;47.766;8.846;2022-09-20T07:02:54;3.22;;;1.77;;
15952;SDS011;8075;47.766;8.846;2022-09-20T07:05:20;4.55;;;2.10;;
15952;SDS011;8075;47.766;8.846;2022-09-20T07:07:48;4.93;;;2.15;;
15952;SDS011;8075;47.766;8.846;2022-09-20T07:10:14;3.60;;;1.85;;
15952;SDS011;8075;47.766;8.846;2022-09-20T07:12:40;3.17;;;1.60;;
15952;SDS011;8075;47.766;8.846;2022-09-20T07:15:07;4.60;;;1.75;;
15952;SDS011;8075;47.766;8.846;2022-09-20T07:17:33;5.35;;;1.70;;
15952;SDS011;8075;47.766;8.846;2022-09-20T07:19:59;6.10;;;1.92;;
15952;SDS011;8075;47.766;8.846;2022-09-20T07:22:25;3.42;;;1.70;;
15952;SDS011;8075;47.766;8.846;2022-09-20T07:24:51;3.10;;;1.55;;
15952;SDS011;8075;47.766;8.846;2022-09-20T07:27:17;3.38;;;1.85;;
15952;SDS011;8075;47.766;8.846;2022-09-20T07:29:44;6.97;;;3.17;;
15952;SDS011;8075;47.766;8.846;2022-09-20T07:32:10;11.68;;;3.53;;
15952;SDS011;8075;47.766;8.846;2022-09-20T07:34:36;9.95;;;3.65;;
15952;SDS011;8075;47.766;8.846;2022-09-20T07:37:02;9.00;;;4.03;;
15952;SDS011;8075;47.766;8.846;2022-09-20T07:39:28;8.18;;;3.75;;
15952;SDS011;8075;47.766;8.846;2022-09-20T07:41:57;8.47;;;4.33;;
15952;SDS011;8075;47.766;8.846;2022-09-20T09:26:13;4.07;;;1.50;;
15952;SDS011;8075;47.766;8.846;2022-09-20T10:24:19;4.05;;;1.60;;
15952;SDS011;8075;47.766;8.846;2022-09-20T10:58:11;3.03;;;1.40;;
15952;SDS011;8075;47.766;8.846;2022-09-20T11:20:24;2.88;;;1.08;;
15952;SDS011;8075;47.766;8.846;2022-09-20T11:31:23;3.42;;;1.20;;
15952;SDS011;8075;47.766;8.846;2022-09-20T11:54:46;4.80;;;1.30;;
15952;SDS011;8075;47.766;8.846;2022-09-20T11:57:18;2.63;;;1.15;;
15952;SDS011;8075;47.766;8.846;2022-09-20T11:59:49;6.28;;;1.80;;
15952;SDS011;8075;47.766;8.846;2022-09-20T12:02:22;2.85;;;1.30;;
15952;SDS011;8075;47.766;8.846;2022-09-20T12:04:48;3.70;;;1.02;;
15952;SDS011;8075;47.766;8.846;2022-09-20T12:07:24;2.53;;;1.35;;
15952;SDS011;8075;47.766;8.846;2022-09-20T12:09:53;4.13;;;1.87;;
15952;SDS011;8075;47.766;8.846;2022-09-20T12:12:42;3.40;;;1.20;;
15952;SDS011;8075;47.766;8.846;2022-09-20T12:26:03;2.13;;;0.77;;
15952;SDS011;8075;47.766;8.846;2022-09-20T12:28:42;2.15;;;0.90;;
15952;SDS011;8075;47.766;8.846;2022-09-20T12:40:21;1.35;;;0.80;;
15952;SDS011;8075;47.766;8.846;2022-09-20T12:43:14;2.03;;;0.80;;
15952;SDS011;8075;47.766;8.846;2022-09-20T12:48:50;2.40;;;0.70;;
15952;SDS011;8075;47.766;8.846;2022-09-20T12:51:21;1.95;;;0.73;;
15952;SDS011;8075;47.766;8.846;2022-09-20T12:54:09;1.30;;;0.55;;
15952;SDS011;8075;47.766;8.846;2022-09-20T12:56:36;1.70;;;0.60;;
15952;SDS011;8075;47.766;8.846;2022-09-20T12:59:04;1.65;;;0.50;;
15952;SDS011;8075;47.766;8.846;2022-09-20T13:01:33;1.23;;;0.50;;
15952;SDS011;8075;47.766;8.846;2022-09-20T13:05:28;1.35;;;0.70;;
15952;SDS011;8075;47.766;8.846;2022-09-20T13:07:25;3.38;;;0.60;;
15952;SDS011;8075;47.766;8.846;2022-09-20T13:09:57;3.00;;;0.93;;
15952;SDS011;8075;47.766;8.846;2022-09-20T13:12:27;3.00;;;1.70;;
15952;SDS011;8075;47.766;8.846;2022-09-20T13:14:53;3.22;;;1.30;;
15952;SDS011;8075;47.766;8.846;2022-09-20T13:17:26;3.83;;;1.15;;
15952;SDS011;8075;47.766;8.846;2022-09-20T13:19:55;5.22;;;1.08;;
15952;SDS011;8075;47.766;8.846;2022-09-20T13:25:00;3.75;;;1.00;;
15952;SDS011;8075;47.766;8.846;2022-09-20T13:27:37;3.40;;;1.10;;
15952;SDS011;8075;47.766;8.846;2022-09-20T13:32:42;2.60;;;1.17;;
15952;SDS011;8075;47.766;8.846;2022-09-20T13:35:12;3.17;;;1.10;;
15952;SDS011;8075;47.766;8.846;2022-09-20T13:38:01;2.20;;;1.02;;
15952;SDS011;8075;47.766;8.846;2022-09-20T13:43:04;3.10;;;1.00;;
15952;SDS011;8075;47.766;8.846;2022-09-20T13:45:31;3.70;;;1.45;;
15952;SDS011;8075;47.766;8.846;2022-09-20T13:47:58;3.70;;;1.27;;
15952;SDS011;8075;47.766;8.846;2022-09-20T13:52:55;3.03;;;1.10;;
15952;SDS011;8075;47.766;8.846;2022-09-20T13:55:32;2.65;;;1.00;;
15952;SDS011;8075;47.766;8.846;2022-09-20T13:58:03;2.17;;;1.20;;
15952;SDS011;8075;47.766;8.846;2022-09-20T14:00:31;3.47;;;0.95;;
15952;SDS011;8075;47.766;8.846;2022-09-20T14:02:58;2.67;;;1.00;;
15952;SDS011;8075;47.766;8.846;2022-09-20T14:05:26;2.50;;;1.00;;
15952;SDS011;8075;47.766;8.846;2022-09-20T14:07:53;3.50;;;1.00;;
15952;SDS011;8075;47.766;8.846;2022-09-20T14:10:35;2.03;;;0.73;;
15952;SDS011;8075;47.766;8.846;2022-09-20T14:13:05;3.42;;;1.10;;
15952;SDS011;8075;47.766;8.846;2022-09-20T14:15:33;2.90;;;1.02;;
15952;SDS011;8075;47.766;8.846;2022-09-20T14:18:01;3.08;;;1.05;;
15952;SDS011;8075;47.766;8.846;2022-09-20T14:20:28;1.33;;;0.90;;
15952;SDS011;8075;47.766;8.846;2022-09-20T14:22:54;1.90;;;0.98;;
15952;SDS011;8075;47.766;8.846;2022-09-20T14:25:22;2.33;;;1.00;;
15952;SDS011;8075;47.766;8.846;2022-09-20T14:28:03;3.60;;;1.27;;
15952;SDS011;8075;47.766;8.846;2022-09-20T14:30:33;2.58;;;1.00;;
15952;SDS011;8075;47.766;8.846;2022-09-20T14:33:00;2.77;;;1.03;;
15952;SDS011;8075;47.766;8.846;2022-09-20T14:35:26;2.20;;;0.93;;
15952;SDS011;8075;47.766;8.846;2022-09-20T14:37:57;2.78;;;0.90;;
15952;SDS011;8075;47.766;8.846;2022-09-20T14:40:46;2.35;;;0.88;;
15952;SDS011;8075;47.766;8.846;2022-09-20T14:43:29;2.08;;;0.90;;
15952;SDS011;8075;47.766;8.846;2022-09-20T14:45:57;2.17;;;0.90;;
15952;SDS011;8075;47.766;8.846;2022-09-20T14:53:36;1.92;;;0.77;;
15952;SDS011;8075;47.766;8.846;2022-09-20T14:58:31;2.42;;;0.90;;
15952;SDS011;8075;47.766;8.846;2022-09-20T15:01:01;2.20;;;0.90;;
15952;SDS011;8075;47.766;8.846;2022-09-20T15:03:31;2.17;;;0.90;;
15952;SDS011;8075;47.766;8.846;2022-09-20T15:05:57;2.67;;;0.90;;
15952;SDS011;8075;47.766;8.846;2022-09-20T15:08:23;3.70;;;0.90;;
15952;SDS011;8075;47.766;8.846;2022-09-20T15:10:50;3.92;;;1.00;;
15952;SDS011;8075;47.766;8.846;2022-09-20T15:13:16;1.92;;;1.00;;
15952;SDS011;8075;47.766;8.846;2022-09-20T15:15:42;2.95;;;1.30;;
15952;SDS011;8075;47.766;8.846;2022-09-20T15:18:29;3.83;;;0.90;;
15952;SDS011;8075;47.766;8.846;2022-09-20T15:20:58;3.50;;;1.05;;
15952;SDS011;8075;47.766;8.846;2022-09-20T15:23:25;3.70;;;0.98;;
15952;SDS011;8075;47.766;8.846;2022-09-20T15:25:51;1.73;;;0.70;;
15952;SDS011;8075;47.766;8.846;2022-09-20T15:28:17;1.42;;;0.90;;
15952;SDS011;8075;47.766;8.846;2022-09-20T15:30:44;1.98;;;0.98;;
15952;SDS011;8075;47.766;8.846;2022-09-20T15:33:11;2.53;;;0.80;;
15952;SDS011;8075;47.766;8.846;2022-09-20T15:35:37;2.13;;;1.07;;
15952;SDS011;8075;47.766;8.846;2022-09-20T15:38:04;2.60;;;0.80;;
15952;SDS011;8075;47.766;8.846;2022-09-20T15:40:32;1.93;;;0.70;;
15952;SDS011;8075;47.766;8.846;2022-09-20T15:42:58;2.22;;;0.80;;
15952;SDS011;8075;47.766;8.846;2022-09-20T15:45:25;1.35;;;0.70;;
15952;SDS011;8075;47.766;8.846;2022-09-20T15:47:52;2.20;;;0.85;;
15952;SDS011;8075;47.766;8.846;2022-09-20T15:50:19;2.13;;;0.80;;
15952;SDS011;8075;47.766;8.846;2022-09-20T15:52:49;3.92;;;0.90;;
15952;SDS011;8075;47.766;8.846;2022-09-20T15:55:16;2.45;;;0.90;;
15952;SDS011;8075;47.766;8.846;2022-09-20T15:57:42;1.63;;;0.68;;
15952;SDS011;8075;47.766;8.846;2022-09-20T16:00:08;1.95;;;0.80;;
15952;SDS011;8075;47.766;8.846;2022-09-20T16:02:34;1.70;;;0.88;;
15952;SDS011;8075;47.766;8.846;2022-09-20T16:05:00;1.73;;;1.00;;
15952;SDS011;8075;47.766;8.846;2022-09-20T16:07:26;1.38;;;0.70;;
15952;SDS011;8075;47.766;8.846;2022-09-20T16:09:53;3.80;;;0.90;;
15952;SDS011;8075;47.766;8.846;2022-09-20T16:12:20;2.13;;;0.80;;
15952;SDS011;8075;47.766;8.846;2022-09-20T16:14:46;1.42;;;0.63;;
15952;SDS011;8075;47.766;8.846;2022-09-20T16:17:13;1.17;;;0.73;;
15952;SDS011;8075;47.766;8.846;2022-09-20T16:19:39;3.28;;;0.93;;
15952;SDS011;8075;47.766;8.846;2022-09-20T16:22:06;1.40;;;0.60;;
15952;SDS011;8075;47.766;8.846;2022-09-20T16:24:33;1.65;;;0.60;;
15952;SDS011;8075;47.766;8.846;2022-09-20T16:27:00;1.40;;;0.73;;
15952;SDS011;8075;47.766;8.846;2022-09-20T16:29:26;2.30;;;0.80;;
15952;SDS011;8075;47.766;8.846;2022-09-20T16:31:54;2.17;;;0.70;;
15952;SDS011;8075;47.766;8.846;2022-09-20T16:36:51;2.58;;;0.80;;
15952;SDS011;8075;47.766;8.846;2022-09-20T16:39:22;3.22;;;1.00;;
15952;SDS011;8075;47.766;8.846;2022-09-20T16:41:52;2.63;;;0.90;;
15952;SDS011;8075;47.766;8.846;2022-09-20T16:44:18;2.20;;;1.10;;
15952;SDS011;8075;47.766;8.846;2022-09-20T16:46:44;2.10;;;0.90;;
15952;SDS011;8075;47.766;8.846;2022-09-20T16:49:11;2.30;;;0.90;;
15952;SDS011;8075;47.766;8.846;2022-09-20T17:07:33;2.47;;;0.70;;
15952;SDS011;8075;47.766;8.846;2022-09-20T17:27:49;1.97;;;0.80;;
15952;SDS011;8075;47.766;8.846;2022-09-20T17:33:34;4.10;;;1.17;;
15952;SDS011;8075;47.766;8.846;2022-09-20T17:35:50;3.33;;;1.23;;
15952;SDS011;8075;47.766;8.846;2022-09-20T17:38:16;3.50;;;1.00;;
15952;SDS011;8075;47.766;8.846;2022-09-20T17:40:56;3.28;;;0.90;;
15952;SDS011;8075;47.766;8.846;2022-09-20T17:43:36;2.20;;;1.00;;
15952;SDS011;8075;47.766;8.846;2022-09-20T17:49:27;3.83;;;1.33;;
15952;SDS011;8075;47.766;8.846;2022-09-20T17:52:03;2.20;;;1.20;;
15952;SDS011;8075;47.766;8.846;2022-09-20T17:54:32;3.90;;;1.20;;
15952;SDS011;8075;47.766;8.846;2022-09-20T17:56:58;2.85;;;1.23;;
15952;SDS011;8075;47.766;8.846;2022-09-20T17:59:24;2.08;;;1.20;;
15952;SDS011;8075;47.766;8.846;2022-09-20T18:01:58;2.23;;;1.10;;
15952;SDS011;8075;47.766;8.846;2022-09-20T18:04:27;2.43;;;1.70;;
15952;SDS011;8075;47.766;8.846;2022-09-20T18:06:53;5.50;;;3.47;;
15952;SDS011;8075;47.766;8.846;2022-09-20T18:09:21;5.45;;;4.70;;
15952;SDS011;8075;47.766;8.846;2022-09-20T18:11:51;6.03;;;5.10;;
15952;SDS011;8075;47.766;8.846;2022-09-20T18:14:21;6.20;;;4.47;;
15952;SDS011;8075;47.766;8.846;2022-09-20T18:16:50;4.13;;;3.25;;
15952;SDS011;8075;47.766;8.846;2022-09-20T18:19:16;4.88;;;3.40;;
15952;SDS011;8075;47.766;8.846;2022-09-20T18:21:42;4.75;;;3.05;;
15952;SDS011;8075;47.766;8.846;2022-09-20T18:24:09;3.05;;;1.67;;
15952;SDS011;8075;47.766;8.846;2022-09-20T18:26:36;3.00;;;1.43;;
15952;SDS011;8075;47.766;8.846;2022-09-20T18:31:36;2.65;;;1.40;;
15952;SDS011;8075;47.766;8.846;2022-09-20T18:34:05;4.67;;;2.10;;
15952;SDS011;8075;47.766;8.846;2022-09-20T18:36:37;4.63;;;2.08;;
15952;SDS011;8075;47.766;8.846;2022-09-20T18:39:04;3.35;;;1.75;;
15952;SDS011;8075;47.766;8.846;2022-09-20T18:41:34;4.13;;;2.35;;
15952;SDS011;8075;47.766;8.846;2022-09-20T18:44:01;4.88;;;2.90;;
15952;SDS011;8075;47.766;8.846;2022-09-20T18:46:28;3.95;;;2.53;;
15952;SDS011;8075;47.766;8.846;2022-09-20T18:48:55;3.67;;;2.20;;
15952;SDS011;8075;47.766;8.846;2022-09-20T18:51:22;3.13;;;2.33;;
15952;SDS011;8075;47.766;8.846;2022-09-20T18:53:49;2.50;;;1.80;;
15952;SDS011;8075;47.766;8.846;2022-09-20T18:58:44;3.38;;;2.63;;
15952;SDS011;8075;47.766;8.846;2022-09-20T19:06:47;4.57;;;3.00;;
15952;SDS011;8075;47.766;8.846;2022-09-20T19:09:19;5.80;;;3.70;;
15952;SDS011;8075;47.766;8.846;2022-09-20T19:11:48;5.50;;;3.28;;
15952;SDS011;8075;47.766;8.846;2022-09-20T19:14:24;5.90;;;2.72;;
15952;SDS011;8075;47.766;8.846;2022-09-20T19:16:53;3.25;;;2.20;;
15952;SDS011;8075;47.766;8.846;2022-09-20T19:27:00;2.10;;;1.90;;
15952;SDS011;8075;47.766;8.846;2022-09-20T19:29:29;2.88;;;1.77;;
15952;SDS011;8075;47.766;8.846;2022-09-20T19:31:55;3.72;;;2.70;;
15952;SDS011;8075;47.766;8.846;2022-09-20T19:39:21;3.63;;;3.03;;
15952;SDS011;8075;47.766;8.846;2022-09-20T19:49:40;5.57;;;2.90;;
15952;SDS011;8075;47.766;8.846;2022-09-20T19:52:11;2.50;;;2.30;;
15952;SDS011;8075;47.766;8.846;2022-09-20T19:54:37;3.50;;;2.40;;
15952;SDS011;8075;47.766;8.846;2022-09-20T19:57:05;3.45;;;1.90;;
15952;SDS011;8075;47.766;8.846;2022-09-20T19:59:32;4.20;;;2.33;;
15952;SDS011;8075;47.766;8.846;2022-09-20T20:01:58;2.97;;;2.10;;
15952;SDS011;8075;47.766;8.846;2022-09-20T20:04:24;4.85;;;2.30;;
15952;SDS011;8075;47.766;8.846;2022-09-20T20:11:56;4.10;;;3.20;;
15952;SDS011;8075;47.766;8.846;2022-09-20T20:14:44;6.05;;;3.40;;
15952;SDS011;8075;47.766;8.846;2022-09-20T20:17:34;5.80;;;4.97;;
15952;SDS011;8075;47.766;8.846;2022-09-20T20:20:12;8.97;;;5.43;;
15952;SDS011;8075;47.766;8.846;2022-09-20T20:27:50;3.78;;;2.95;;
15952;SDS011;8075;47.766;8.846;2022-09-20T20:30:16;4.45;;;2.78;;
15952;SDS011;8075;47.766;8.846;2022-09-20T20:32:44;3.53;;;2.70;;
15952;SDS011;8075;47.766;8.846;2022-09-20T20:35:10;4.32;;;2.58;;
15952;SDS011;8075;47.766;8.846;2022-09-20T20:37:39;3.33;;;2.40;;
15952;SDS011;8075;47.766;8.846;2022-09-20T20:40:05;4.37;;;2.50;;
15952;SDS011;8075;47.766;8.846;2022-09-20T20:42:36;3.47;;;2.40;;
15952;SDS011;8075;47.766;8.846;2022-09-20T20:45:02;2.83;;;2.30;;
15952;SDS011;8075;47.766;8.846;2022-09-20T20:47:28;3.95;;;2.30;;
15952;SDS011;8075;47.766;8.846;2022-09-20T20:49:54;3.17;;;2.50;;
15952;SDS011;8075;47.766;8.846;2022-09-20T20:52:20;3.42;;;2.35;;
15952;SDS011;8075;47.766;8.846;2022-09-20T20:54:46;3.30;;;2.30;;
15952;SDS011;8075;47.766;8.846;2022-09-20T20:57:12;3.35;;;2.15;;
15952;SDS011;8075;47.766;8.846;2022-09-20T20:59:44;3.67;;;2.20;;
15952;SDS011;8075;47.766;8.846;2022-09-20T21:02:10;3.45;;;2.03;;
15952;SDS011;8075;47.766;8.846;2022-09-20T21:04:36;5.75;;;2.28;;
15952;SDS011;8075;47.766;8.846;2022-09-20T21:07:04;2.75;;;2.10;;
15952;SDS011;8075;47.766;8.846;2022-09-20T21:09:30;3.72;;;2.30;;
15952;SDS011;8075;47.766;8.846;2022-09-20T21:11:56;4.20;;;3.43;;
15952;SDS011;8075;47.766;8.846;2022-09-20T21:14:22;5.40;;;3.80;;
15952;SDS011;8075;47.766;8.846;2022-09-20T21:16:49;4.90;;;3.17;;
15952;SDS011;8075;47.766;8.846;2022-09-20T21:19:16;3.80;;;3.38;;
15952;SDS011;8075;47.766;8.846;2022-09-20T21:21:43;4.97;;;3.55;;
15952;SDS011;8075;47.766;8.846;2022-09-20T21:24:11;4.40;;;2.88;;
15952;SDS011;8075;47.766;8.846;2022-09-20T21:26:37;3.20;;;2.37;;
15952;SDS011;8075;47.766;8.846;2022-09-20T21:29:05;4.40;;;2.10;;
15952;SDS011;8075;47.766;8.846;2022-09-20T21:31:32;2.70;;;1.70;;
15952;SDS011;8075;47.766;8.846;2022-09-20T21:33:58;2.35;;;1.70;;
15952;SDS011;8075;47.766;8.846;2022-09-20T21:36:25;2.93;;;1.70;;
15952;SDS011;8075;47.766;8.846;2022-09-20T21:38:52;2.15;;;1.60;;
15952;SDS011;8075;47.766;8.846;2022-09-20T21:41:19;5.00;;;1.60;;
15952;SDS011;8075;47.766;8.846;2022-09-20T21:43:52;2.28;;;1.70;;
15952;SDS011;8075;47.766;8.846;2022-09-20T21:46:20;3.17;;;1.67;;
15952;SDS011;8075;47.766;8.846;2022-09-20T21:48:47;2.13;;;1.60;;
15952;SDS011;8075;47.766;8.846;2022-09-20T21:51:15;2.95;;;1.63;;
15952;SDS011;8075;47.766;8.846;2022-09-20T21:53:42;4.25;;;1.70;;
15952;SDS011;8075;47.766;8.846;2022-09-20T21:56:09;3.28;;;1.90;;
15952;SDS011;8075;47.766;8.846;2022-09-20T21:58:36;4.32;;;1.73;;
